createdAt,value
2022-10-18T00:00:09.734Z,17.39
2022-10-18T00:02:37.693Z,17.28
2022-10-18T00:05:04.308Z,17.24
2022-10-18T00:07:31.146Z,17.25
2022-10-18T00:09:57.727Z,17.26
2022-10-18T00:12:24.184Z,17.28
2022-10-18T00:14:51.726Z,17.28
2022-10-18T00:17:18.188Z,17.29
2022-10-18T00:19:44.741Z,17.29
2022-10-18T00:22:11.159Z,17.29
2022-10-18T00:24:37.590Z,17.31
2022-10-18T00:27:04.111Z,17.32
2022-10-18T00:29:30.583Z,17.29
2022-10-18T00:31:57.069Z,17.29
2022-10-18T00:34:23.668Z,17.31
2022-10-18T00:36:50.352Z,17.31
2022-10-18T00:39:19.253Z,17.31
2022-10-18T00:41:46.237Z,17.31
2022-10-18T00:44:12.530Z,17.30
2022-10-18T00:46:43.929Z,17.29
2022-10-18T00:49:20.184Z,17.23
2022-10-18T00:52:14.889Z,17.21
2022-10-18T00:54:43.028Z,17.20
2022-10-18T00:57:10.052Z,17.20
2022-10-18T00:59:37.081Z,17.18
2022-10-18T01:02:03.639Z,17.18
2022-10-18T01:04:30.260Z,17.19
2022-10-18T01:07:06.810Z,17.18
2022-10-18T01:10:00.565Z,17.19
2022-10-18T01:12:49.669Z,17.19
2022-10-18T01:15:34.741Z,17.22
2022-10-18T01:18:16.504Z,17.16
2022-10-18T01:20:56.529Z,17.15
2022-10-18T01:23:51.147Z,17.14
2022-10-18T01:26:48.190Z,17.15
2022-10-18T01:29:42.346Z,17.10
2022-10-18T01:32:12.811Z,17.09
2022-10-18T01:34:40.165Z,17.10
2022-10-18T01:37:08.520Z,17.09
2022-10-18T01:39:37.291Z,17.09
2022-10-18T01:42:06.803Z,17.07
2022-10-18T01:44:33.427Z,17.08
2022-10-18T01:46:59.921Z,17.11
2022-10-18T01:49:26.940Z,17.13
2022-10-18T01:51:53.645Z,17.13
2022-10-18T01:54:27.811Z,17.12
2022-10-18T01:57:01.182Z,17.13
2022-10-18T01:59:47.229Z,17.09
2022-10-18T02:02:32.263Z,17.08
2022-10-18T02:05:35.909Z,17.10
2022-10-18T02:08:22.751Z,17.12
2022-10-18T02:11:01.206Z,17.11
2022-10-18T02:13:30.688Z,17.05
2022-10-18T02:16:01.389Z,16.96
2022-10-18T02:18:36.697Z,16.90
2022-10-18T02:21:05.532Z,16.82
2022-10-18T02:23:32.557Z,16.80
2022-10-18T02:25:58.940Z,16.82
2022-10-18T02:31:16.119Z,16.85
2022-10-18T02:33:59.143Z,16.86
2022-10-18T02:36:32.155Z,16.85
2022-10-18T02:39:03.407Z,16.87
2022-10-18T02:41:31.197Z,16.87
2022-10-18T02:43:57.933Z,16.88
2022-10-18T02:46:24.464Z,16.88
2022-10-18T02:48:50.943Z,16.86
2022-10-18T02:51:17.841Z,16.84
2022-10-18T02:53:44.264Z,16.83
2022-10-18T02:56:10.660Z,16.83
2022-10-18T02:58:37.052Z,16.81
2022-10-18T03:01:03.481Z,16.81
2022-10-18T03:03:29.951Z,16.79
2022-10-18T03:05:56.356Z,16.78
2022-10-18T03:08:22.829Z,16.77
2022-10-18T03:10:49.242Z,16.78
2022-10-18T03:13:15.866Z,16.77
2022-10-18T03:15:42.548Z,16.79
2022-10-18T03:18:09.034Z,16.81
2022-10-18T03:20:35.818Z,16.80
2022-10-18T03:23:03.201Z,16.76
2022-10-18T03:25:29.610Z,16.68
2022-10-18T03:27:56.021Z,16.59
2022-10-18T03:30:22.416Z,16.51
2022-10-18T03:32:48.807Z,16.47
2022-10-18T03:35:15.304Z,16.47
2022-10-18T03:37:41.764Z,16.50
2022-10-18T03:40:08.810Z,16.52
2022-10-18T03:42:35.342Z,16.53
2022-10-18T03:45:02.104Z,16.58
2022-10-18T03:47:28.532Z,16.61
2022-10-18T03:49:57.157Z,16.64
2022-10-18T03:52:23.912Z,16.63
2022-10-18T03:54:50.330Z,16.61
2022-10-18T03:57:16.745Z,16.60
2022-10-18T03:59:43.421Z,16.57
2022-10-18T04:02:09.856Z,16.59
2022-10-18T04:04:36.250Z,16.61
2022-10-18T04:07:02.658Z,16.63
2022-10-18T04:09:29.081Z,16.65
2022-10-18T04:11:55.483Z,16.67
2022-10-18T04:14:22.054Z,16.68
2022-10-18T04:16:48.725Z,16.66
2022-10-18T04:19:15.702Z,16.69
2022-10-18T04:21:42.221Z,16.70
2022-10-18T04:24:08.627Z,16.70
2022-10-18T04:26:35.026Z,16.71
2022-10-18T04:29:01.519Z,16.73
2022-10-18T04:31:27.944Z,16.71
2022-10-18T04:33:54.648Z,16.72
2022-10-18T04:36:21.076Z,16.67
2022-10-18T04:38:47.464Z,16.66
2022-10-18T04:41:13.897Z,16.65
2022-10-18T04:43:40.301Z,16.66
2022-10-18T04:46:06.724Z,16.66
2022-10-18T04:48:33.135Z,16.67
2022-10-18T04:50:59.728Z,16.68
2022-10-18T04:53:26.113Z,16.68
2022-10-18T04:55:52.583Z,16.68
2022-10-18T04:58:19.568Z,16.66
2022-10-18T05:00:47.589Z,16.64
2022-10-18T05:03:14.253Z,16.64
2022-10-18T05:06:00.264Z,16.65
2022-10-18T05:08:27.776Z,16.62
2022-10-18T05:10:54.297Z,16.57
2022-10-18T05:13:20.788Z,16.57
2022-10-18T05:15:47.484Z,16.57
2022-10-18T05:18:13.908Z,16.58
2022-10-18T05:20:40.313Z,16.59
2022-10-18T05:23:06.785Z,16.60
2022-10-18T05:25:33.193Z,16.61
2022-10-18T05:28:03.420Z,16.63
2022-10-18T05:30:40.977Z,16.63
2022-10-18T05:33:08.348Z,16.61
2022-10-18T05:35:35.053Z,16.58
2022-10-18T05:38:06.057Z,16.57
2022-10-18T05:40:33.466Z,16.56
2022-10-18T05:42:59.856Z,16.57
2022-10-18T05:45:26.260Z,16.58
2022-10-18T05:47:52.700Z,16.57
2022-10-18T05:50:19.082Z,16.55
2022-10-18T05:52:45.483Z,16.55
2022-10-18T05:55:11.905Z,16.54
2022-10-18T05:57:38.300Z,16.55
2022-10-18T06:00:07.413Z,16.52
2022-10-18T06:02:38.392Z,16.50
2022-10-18T06:05:05.086Z,16.51
2022-10-18T06:07:31.967Z,16.52
2022-10-18T06:09:58.508Z,16.50
2022-10-18T06:12:24.989Z,16.50
2022-10-18T06:14:51.424Z,16.50
2022-10-18T06:17:17.921Z,16.46
2022-10-18T06:19:44.795Z,16.42
2022-10-18T06:22:11.688Z,16.42
2022-10-18T06:24:38.184Z,16.44
2022-10-18T06:27:08.770Z,16.41
2022-10-18T06:29:39.368Z,16.41
2022-10-18T06:32:06.863Z,16.42
2022-10-18T06:34:33.990Z,16.46
2022-10-18T06:37:00.375Z,16.48
2022-10-18T06:39:27.104Z,16.52
2022-10-18T06:41:53.552Z,16.53
2022-10-18T06:44:20.788Z,16.54
2022-10-18T06:46:48.291Z,16.59
2022-10-18T06:49:18.953Z,16.61
2022-10-18T06:51:46.082Z,16.59
2022-10-18T06:54:18.451Z,16.59
2022-10-18T06:56:45.262Z,16.61
2022-10-18T06:59:11.811Z,16.63
2022-10-18T07:01:38.350Z,16.66
2022-10-18T07:04:04.816Z,16.63
2022-10-18T07:06:31.326Z,16.61
2022-10-18T07:08:57.789Z,16.62
2022-10-18T07:11:26.156Z,16.63
2022-10-18T07:13:54.357Z,16.61
2022-10-18T07:16:21.289Z,16.56
2022-10-18T07:18:49.804Z,16.55
2022-10-18T07:21:18.660Z,16.57
2022-10-18T07:23:48.427Z,16.58
2022-10-18T07:26:23.595Z,16.61
2022-10-18T07:28:57.877Z,16.63
2022-10-18T07:31:25.072Z,16.67
2022-10-18T07:33:51.744Z,16.69
2022-10-18T07:36:18.521Z,16.73
2022-10-18T07:38:44.919Z,16.76
2022-10-18T07:41:12.616Z,16.78
2022-10-18T07:43:46.305Z,16.78
2022-10-18T07:46:13.636Z,16.78
2022-10-18T07:48:40.143Z,16.78
2022-10-18T07:51:06.693Z,16.83
2022-10-18T07:53:34.466Z,16.90
2022-10-18T07:56:04.711Z,16.99
2022-10-18T07:58:34.313Z,17.08
2022-10-18T08:01:05.409Z,17.18
2022-10-18T08:03:32.353Z,17.28
2022-10-18T08:05:58.751Z,17.30
2022-10-18T08:08:25.874Z,17.36
2022-10-18T08:10:52.397Z,17.43
2022-10-18T08:13:18.771Z,17.43
2022-10-18T08:15:45.277Z,17.46
2022-10-18T08:18:11.924Z,17.47
2022-10-18T08:20:43.323Z,17.49
2022-10-18T08:23:09.873Z,17.53
2022-10-18T08:28:07.853Z,17.56
2022-10-18T08:30:35.193Z,17.56
2022-10-18T08:33:02.192Z,17.58
2022-10-18T08:35:28.662Z,17.63
2022-10-18T08:37:55.115Z,17.66
2022-10-18T08:40:21.508Z,17.66
2022-10-18T08:43:02.591Z,17.70
2022-10-18T08:45:41.823Z,17.74
2022-10-18T08:48:19.332Z,17.73
2022-10-18T08:50:46.056Z,17.77
2022-10-18T08:53:35.082Z,17.77
2022-10-18T08:56:11.113Z,17.75
2022-10-18T08:58:38.249Z,17.76
2022-10-18T09:01:13.744Z,17.77
2022-10-18T09:04:08.053Z,17.79
2022-10-18T09:06:43.358Z,17.81
2022-10-18T09:09:34.219Z,17.87
2022-10-18T09:12:25.738Z,17.92
2022-10-18T09:15:16.105Z,18.04
2022-10-18T09:17:56.750Z,18.12
2022-10-18T09:20:26.367Z,18.21
2022-10-18T09:23:05.576Z,18.31
2022-10-18T09:25:33.855Z,18.40
2022-10-18T09:28:16.424Z,18.44
2022-10-18T09:31:09.104Z,18.45
2022-10-18T09:33:46.557Z,18.44
2022-10-18T09:36:18.916Z,18.41
2022-10-18T09:38:48.425Z,18.43
2022-10-18T09:41:21.029Z,18.45
2022-10-18T09:43:53.671Z,18.40
2022-10-18T09:46:21.932Z,18.40
2022-10-18T09:48:56.021Z,18.38
2022-10-18T09:51:28.680Z,18.39
2022-10-18T09:54:34.548Z,18.39
2022-10-18T09:57:13.168Z,18.44
2022-10-18T09:59:42.379Z,18.46
2022-10-18T10:02:15.423Z,18.53
2022-10-18T10:04:41.916Z,18.59
2022-10-18T10:07:12.512Z,18.63
2022-10-18T10:10:11.894Z,18.64
2022-10-18T10:12:40.278Z,18.58
2022-10-18T10:15:29.700Z,18.51
2022-10-18T10:18:03.047Z,18.55
2022-10-18T10:20:35.552Z,18.58
2022-10-18T10:23:08.306Z,18.58
2022-10-18T10:25:37.858Z,18.58
2022-10-18T10:28:07.212Z,18.58
2022-10-18T10:30:38.713Z,18.56
2022-10-18T10:33:06.012Z,18.56
2022-10-18T10:38:24.831Z,18.57
2022-10-18T10:40:51.725Z,18.54
2022-10-18T10:43:39.249Z,18.55
2022-10-18T10:46:10.383Z,18.58
2022-10-18T10:48:46.623Z,18.59
2022-10-18T10:51:14.134Z,18.56
2022-10-18T10:54:05.372Z,18.54
2022-10-18T10:56:33.819Z,18.61
2022-10-18T10:59:08.654Z,18.63
2022-10-18T11:01:36.261Z,18.65
2022-10-18T11:04:23.395Z,18.71
2022-10-18T11:07:08.853Z,18.76
2022-10-18T11:09:50.420Z,18.79
2022-10-18T11:12:38.728Z,18.83
2022-10-18T11:15:14.423Z,18.83
2022-10-18T11:17:59.109Z,18.82
2022-10-18T11:20:48.402Z,18.79
2022-10-18T11:23:15.514Z,18.75
2022-10-18T11:25:53.813Z,18.70
2022-10-18T11:28:41.787Z,18.69
2022-10-18T11:31:24.818Z,18.65
2022-10-18T11:34:22.292Z,18.66
2022-10-18T11:37:15.598Z,18.66
2022-10-18T11:39:57.310Z,18.67
2022-10-18T11:42:39.062Z,18.70
2022-10-18T11:45:15.451Z,18.69
2022-10-18T11:47:53.589Z,18.66
2022-10-18T11:50:39.484Z,18.61
2022-10-18T11:53:21.136Z,18.61
2022-10-18T11:55:56.446Z,18.63
2022-10-18T11:58:34.979Z,18.65
2022-10-18T12:01:06.676Z,18.63
2022-10-18T12:03:49.631Z,18.64
2022-10-18T12:06:19.724Z,18.66
2022-10-18T12:08:49.035Z,18.64
2022-10-18T12:11:22.652Z,18.59
2022-10-18T12:14:04.980Z,18.58
2022-10-18T12:16:58.411Z,18.57
2022-10-18T12:19:27.157Z,18.56
2022-10-18T12:21:58.188Z,18.55
2022-10-18T12:24:28.759Z,18.54
2022-10-18T12:26:58.503Z,18.55
2022-10-18T12:29:32.148Z,18.56
2022-10-18T12:32:06.140Z,18.57
2022-10-18T12:34:41.428Z,18.59
2022-10-18T12:37:36.030Z,18.58
2022-10-18T12:40:16.781Z,18.57
2022-10-18T12:42:47.465Z,18.58
2022-10-18T12:45:13.781Z,18.58
2022-10-18T12:47:40.431Z,18.59
2022-10-18T12:50:23.166Z,18.62
2022-10-18T12:53:03.642Z,18.64
2022-10-18T12:55:39.032Z,18.69
2022-10-18T12:58:30.108Z,18.76
2022-10-18T13:00:58.528Z,18.88
2022-10-18T13:03:24.792Z,19.03
2022-10-18T13:05:56.524Z,19.18
2022-10-18T13:08:29.083Z,19.29
2022-10-18T13:11:29.432Z,19.44
2022-10-18T13:14:21.748Z,19.63
2022-10-18T13:17:01.315Z,19.78
2022-10-18T13:19:58.112Z,19.88
2022-10-18T13:22:54.480Z,19.94
2022-10-18T13:25:28.495Z,20.09
2022-10-18T13:28:19.746Z,20.21
2022-10-18T13:30:58.002Z,20.25
2022-10-18T13:33:41.335Z,20.26
2022-10-18T13:36:21.759Z,20.25
2022-10-18T13:38:57.083Z,20.22
2022-10-18T13:41:26.824Z,20.23
2022-10-18T13:43:57.829Z,20.21
2022-10-18T13:46:33.246Z,20.19
2022-10-18T13:49:20.016Z,20.15
2022-10-18T13:52:05.738Z,20.04
2022-10-18T13:54:50.995Z,19.96
2022-10-18T13:57:38.944Z,19.83
2022-10-18T14:00:08.346Z,19.78
2022-10-18T14:02:52.031Z,19.73
2022-10-18T14:05:51.232Z,19.68
2022-10-18T14:08:22.625Z,19.59
2022-10-18T14:11:02.438Z,19.56
2022-10-18T14:14:18.795Z,19.48
2022-10-18T14:17:05.553Z,19.47
2022-10-18T14:19:39.294Z,19.44
2022-10-18T14:22:20.480Z,19.40
2022-10-18T14:24:50.904Z,19.34
2022-10-18T14:27:22.646Z,19.30
2022-10-18T14:29:50.697Z,19.27
2022-10-18T14:32:27.491Z,19.27
2022-10-18T14:35:09.225Z,19.26
2022-10-18T14:37:41.064Z,19.20
2022-10-18T14:40:35.429Z,19.13
2022-10-18T14:43:03.943Z,19.15
2022-10-18T14:45:30.332Z,19.14
2022-10-18T14:48:14.471Z,19.19
2022-10-18T14:50:42.184Z,19.22
2022-10-18T14:53:15.346Z,19.23
2022-10-18T14:55:42.941Z,19.17
2022-10-18T14:58:15.071Z,19.12
2022-10-18T15:00:43.913Z,19.09
2022-10-18T15:03:14.605Z,19.03
2022-10-18T15:05:59.725Z,18.97
2022-10-18T15:08:42.350Z,18.87
2022-10-18T15:11:11.988Z,18.84
2022-10-18T15:13:50.465Z,18.76
2022-10-18T15:16:18.818Z,18.73
2022-10-18T15:18:59.865Z,18.70
2022-10-18T15:21:26.732Z,18.71
2022-10-18T15:23:54.838Z,18.68
2022-10-18T15:26:24.120Z,18.66
2022-10-18T15:28:52.848Z,18.62
2022-10-18T15:31:30.981Z,18.58
2022-10-18T15:34:26.832Z,18.58
2022-10-18T15:36:56.939Z,18.58
2022-10-18T15:39:26.025Z,18.57
2022-10-18T15:42:02.888Z,18.54
2022-10-18T15:44:34.511Z,18.53
2022-10-18T15:47:13.164Z,18.51
2022-10-18T15:49:45.532Z,18.48
2022-10-18T15:52:37.718Z,18.47
2022-10-18T15:55:30.976Z,18.45
2022-10-18T15:58:04.967Z,18.43
2022-10-18T16:00:31.407Z,18.40
2022-10-18T16:02:57.800Z,18.36
2022-10-18T16:05:25.614Z,18.33
2022-10-18T16:07:52.482Z,18.30
2022-10-18T16:10:18.916Z,18.26
2022-10-18T16:12:45.381Z,18.21
2022-10-18T16:15:11.937Z,18.14
2022-10-18T16:17:38.347Z,18.09
2022-10-18T16:20:05.357Z,18.02
2022-10-18T16:22:34.712Z,17.97
2022-10-18T16:25:03.563Z,17.92
2022-10-18T16:27:30.124Z,17.88
2022-10-18T16:29:56.560Z,17.83
2022-10-18T16:32:22.957Z,17.78
2022-10-18T16:34:49.341Z,17.77
2022-10-18T16:37:15.879Z,17.73
2022-10-18T16:39:42.296Z,17.68
2022-10-18T16:42:08.696Z,17.63
2022-10-18T16:44:35.079Z,17.60
2022-10-18T16:47:01.615Z,17.54
2022-10-18T16:49:28.024Z,17.52
2022-10-18T16:55:00.790Z,17.45
2022-10-18T16:57:28.321Z,17.40
2022-10-18T16:59:54.783Z,17.32
2022-10-18T17:02:21.216Z,17.24
2022-10-18T17:04:47.604Z,17.19
2022-10-18T17:09:48.504Z,17.14
2022-10-18T17:12:14.883Z,17.12
2022-10-18T17:14:41.313Z,17.10
2022-10-18T17:17:11.924Z,17.10
2022-10-18T17:19:38.333Z,17.11
2022-10-18T17:22:04.733Z,17.08
2022-10-18T17:24:31.159Z,17.08
2022-10-18T17:26:57.660Z,17.10
2022-10-18T17:29:24.034Z,17.08
2022-10-18T17:31:50.435Z,17.04
2022-10-18T17:34:21.169Z,17.02
2022-10-18T17:36:47.895Z,17.00
2022-10-18T17:39:14.281Z,17.01
2022-10-18T17:41:40.671Z,17.00
2022-10-18T17:44:07.401Z,16.98
2022-10-18T17:46:33.850Z,16.99
2022-10-18T17:49:00.268Z,16.99
2022-10-18T17:51:26.825Z,17.01
2022-10-18T17:53:53.992Z,17.02
2022-10-18T17:56:20.400Z,17.05
2022-10-18T17:58:50.834Z,17.04
2022-10-18T18:01:19.519Z,17.05
2022-10-18T18:03:49.344Z,17.06
2022-10-18T18:06:30.495Z,17.04
2022-10-18T18:09:04.641Z,17.04
2022-10-18T18:11:31.082Z,17.04
2022-10-18T18:13:57.825Z,17.03
2022-10-18T18:16:26.289Z,17.01
2022-10-18T18:18:54.597Z,16.96
2022-10-18T18:21:21.762Z,16.95
2022-10-18T18:23:48.588Z,16.93
2022-10-18T18:26:17.244Z,16.92
2022-10-18T18:28:43.939Z,16.86
2022-10-18T18:31:23.385Z,16.81
2022-10-18T18:33:51.385Z,16.77
2022-10-18T18:36:18.142Z,16.73
2022-10-18T18:38:44.631Z,16.69
2022-10-18T18:41:13.732Z,16.63
2022-10-18T18:43:45.599Z,16.58
2022-10-18T18:46:12.857Z,16.54
2022-10-18T18:48:39.446Z,16.49
2022-10-18T18:51:09.296Z,16.48
2022-10-18T18:53:35.696Z,16.47
2022-10-18T18:56:07.391Z,16.47
2022-10-18T18:58:35.068Z,16.42
2022-10-18T19:01:09.780Z,16.36
2022-10-18T19:03:38.409Z,16.34
2022-10-18T19:06:07.080Z,16.33
2022-10-18T19:08:37.629Z,16.30
2022-10-18T19:11:08.955Z,16.30
2022-10-18T19:13:36.156Z,16.26
2022-10-18T19:16:28.439Z,16.22
2022-10-18T19:19:01.796Z,16.19
2022-10-18T19:21:30.413Z,16.17
2022-10-18T19:23:57.698Z,16.13
2022-10-18T19:26:30.776Z,16.11
2022-10-18T19:29:10.749Z,16.05
2022-10-18T19:31:38.116Z,16.05
2022-10-18T19:34:07.663Z,16.03
2022-10-18T19:36:34.455Z,16.03
2022-10-18T19:39:00.960Z,15.98
2022-10-18T19:41:28.423Z,15.93
2022-10-18T19:43:55.927Z,15.91
2022-10-18T19:46:22.630Z,15.91
2022-10-18T19:48:49.281Z,15.89
2022-10-18T19:51:19.514Z,15.88
2022-10-18T19:53:49.369Z,15.87
2022-10-18T19:56:21.213Z,15.83
2022-10-18T19:58:47.780Z,15.81
2022-10-18T20:01:14.493Z,15.79
2022-10-18T20:03:41.174Z,15.75
2022-10-18T20:06:07.781Z,15.71
2022-10-18T20:08:35.259Z,15.65
2022-10-18T20:11:06.292Z,15.64
2022-10-18T20:13:33.258Z,15.65
2022-10-18T20:16:00.036Z,15.65
2022-10-18T20:18:26.522Z,15.64
2022-10-18T20:20:53.140Z,15.66
2022-10-18T20:23:19.950Z,15.68
2022-10-18T20:26:20.789Z,15.69
2022-10-18T20:28:49.301Z,15.72
2022-10-18T20:31:19.348Z,15.71
2022-10-18T20:33:46.952Z,15.71
2022-10-18T20:36:15.372Z,15.69
2022-10-18T20:38:43.184Z,15.68
2022-10-18T20:41:13.602Z,15.66
2022-10-18T20:43:40.399Z,15.65
2022-10-18T20:46:07.676Z,15.66
2022-10-18T20:48:35.347Z,15.66
2022-10-18T20:51:14.420Z,15.60
2022-10-18T20:53:41.152Z,15.58
2022-10-18T20:56:08.709Z,15.56
2022-10-18T20:58:36.048Z,15.55
2022-10-18T21:01:06.657Z,15.54
2022-10-18T21:03:33.431Z,15.48
2022-10-18T21:06:02.092Z,15.44
2022-10-18T21:08:29.083Z,15.40
2022-10-18T21:10:55.650Z,15.40
2022-10-18T21:13:22.152Z,15.37
2022-10-18T21:15:54.689Z,15.36
2022-10-18T21:18:26.155Z,15.36
2022-10-18T21:20:52.740Z,15.36
2022-10-18T21:23:19.839Z,15.34
2022-10-18T21:25:49.586Z,15.32
2022-10-18T21:28:16.697Z,15.33
2022-10-18T21:30:43.088Z,15.31
2022-10-18T21:33:09.509Z,15.32
2022-10-18T21:35:37.142Z,15.32
2022-10-18T21:38:04.779Z,15.27
2022-10-18T21:40:32.069Z,15.24
2022-10-18T21:42:58.478Z,15.24
2022-10-18T21:45:24.916Z,15.23
2022-10-18T21:47:51.290Z,15.21
2022-10-18T21:50:17.707Z,15.20
2022-10-18T21:52:44.141Z,15.20
2022-10-18T21:55:10.607Z,15.20
2022-10-18T22:00:08.840Z,15.21
2022-10-18T22:02:35.441Z,15.23
2022-10-18T22:05:02.059Z,15.22
2022-10-18T22:07:28.509Z,15.23
2022-10-18T22:09:54.986Z,15.23
2022-10-18T22:12:21.387Z,15.23
2022-10-18T22:14:47.814Z,15.21
2022-10-18T22:17:14.269Z,15.23
2022-10-18T22:19:40.732Z,15.23
2022-10-18T22:22:07.145Z,15.23
2022-10-18T22:24:33.519Z,15.24
2022-10-18T22:26:59.913Z,15.24
2022-10-18T22:29:26.373Z,15.22
2022-10-18T22:31:53.898Z,15.22
2022-10-18T22:34:23.471Z,15.20
2022-10-18T22:36:50.196Z,15.19
2022-10-18T22:39:16.933Z,15.18
2022-10-18T22:41:43.691Z,15.17
2022-10-18T22:44:13.704Z,15.15
2022-10-18T22:46:41.113Z,15.17
2022-10-18T22:49:07.858Z,15.18
2022-10-18T22:54:03.256Z,15.19
2022-10-18T22:56:30.095Z,15.19
2022-10-18T22:58:56.481Z,15.17
2022-10-18T23:01:23.453Z,15.14
2022-10-18T23:03:57.241Z,15.13
2022-10-18T23:06:25.607Z,15.10
2022-10-18T23:08:53.314Z,15.08
2022-10-18T23:11:20.411Z,15.05
2022-10-18T23:13:47.177Z,15.02
2022-10-18T23:16:13.844Z,15.00
2022-10-18T23:18:40.407Z,14.97
2022-10-18T23:21:09.423Z,14.93
2022-10-18T23:23:37.848Z,14.88
2022-10-18T23:26:06.511Z,14.89
2022-10-18T23:28:35.382Z,14.87
2022-10-18T23:31:09.777Z,14.89
2022-10-18T23:33:36.528Z,14.91
2022-10-18T23:36:04.166Z,14.93
2022-10-18T23:38:31.206Z,14.96
2022-10-18T23:40:57.994Z,14.91
2022-10-18T23:43:24.423Z,14.88
2022-10-18T23:45:51.105Z,14.89
2022-10-18T23:48:17.645Z,14.88
2022-10-18T23:50:44.250Z,14.84
2022-10-18T23:53:10.677Z,14.85
2022-10-18T23:55:37.090Z,14.87
2022-10-18T23:58:03.567Z,14.93
